GTI3015 KCVG-KONT
Flight info
| Callsign | GTI3015 |
|---|---|
| Flight time | 4h 5m |
| Altitude | 34000 |
| Route | LOVEY8 HELIS MCI LAA RSK PGS MARUE JCKIE2 |
| Aircraft | B738/M-SDE2E3FGHIRWXY/LB1 |
Departure
| Time | 2026-05-07 13:36 |
|---|---|
| Airport | Cincinnati Northern Kentucky International Airport (KCVG) |
Arrival
| Time | 2026-05-07 17:41 |
|---|---|
| Airport | Ontario International Airport (KONT) |
| Time | Latitude | Longitude | Altitude | Speed | Heading |
|---|---|---|---|---|---|
| 2026-05-07 13:02 | 39.03330 | -84.66574 | 853 ft | 0 kts | 270° |
| 2026-05-07 13:22 | 39.03330 | -84.66551 | 853 ft | 4 kts | 270° |
| 2026-05-07 13:22 | 39.03329 | -84.66517 | 853 ft | 4 kts | 278° |
| 2026-05-07 13:22 | 39.03322 | -84.66485 | 849 ft | 4 kts | 303° |
| 2026-05-07 13:23 | 39.03304 | -84.66463 | 852 ft | 4 kts | 346° |
| 2026-05-07 13:23 | 39.03291 | -84.66461 | 852 ft | 1 kts | 359° |
| 2026-05-07 13:23 | 39.03290 | -84.66461 | 852 ft | 0 kts | 359° |
| 2026-05-07 13:27 | 39.03293 | -84.66461 | 852 ft | 2 kts | 359° |
| 2026-05-07 13:27 | 39.03310 | -84.66462 | 840 ft | 3 kts | 359° |
| 2026-05-07 13:27 | 39.03329 | -84.66462 | 845 ft | 3 kts | 359° |
| 2026-05-07 13:27 | 39.03356 | -84.66462 | 845 ft | 4 kts | 359° |
| 2026-05-07 13:28 | 39.03385 | -84.66462 | 853 ft | 4 kts | 359° |
| 2026-05-07 13:28 | 39.03413 | -84.66463 | 844 ft | 4 kts | 359° |
| 2026-05-07 13:28 | 39.03441 | -84.66463 | 844 ft | 5 kts | 359° |
| 2026-05-07 13:28 | 39.03489 | -84.66464 | 852 ft | 8 kts | 359° |
| 2026-05-07 13:29 | 39.03551 | -84.66464 | 841 ft | 10 kts | 1° |
| 2026-05-07 13:29 | 39.03590 | -84.66409 | 850 ft | 10 kts | 84° |
| 2026-05-07 13:29 | 39.03590 | -84.66320 | 847 ft | 10 kts | 92° |
| 2026-05-07 13:29 | 39.03585 | -84.66230 | 855 ft | 10 kts | 95° |
| 2026-05-07 13:30 | 39.03582 | -84.66138 | 848 ft | 11 kts | 93° |
| 2026-05-07 13:30 | 39.03577 | -84.66016 | 863 ft | 15 kts | 92° |
| 2026-05-07 13:30 | 39.03575 | -84.65880 | 872 ft | 15 kts | 90° |
| 2026-05-07 13:30 | 39.03574 | -84.65685 | 882 ft | 24 kts | 90° |
| 2026-05-07 13:31 | 39.03572 | -84.65474 | 892 ft | 23 kts | 90° |
| 2026-05-07 13:31 | 39.03574 | -84.65272 | 898 ft | 22 kts | 91° |
| 2026-05-07 13:31 | 39.03572 | -84.65102 | 901 ft | 17 kts | 90° |
| 2026-05-07 13:31 | 39.03622 | -84.64994 | 902 ft | 16 kts | 2° |
| 2026-05-07 13:32 | 39.03732 | -84.64993 | 900 ft | 15 kts | 0° |
| 2026-05-07 13:32 | 39.03835 | -84.64991 | 899 ft | 15 kts | 1° |
| 2026-05-07 13:32 | 39.03946 | -84.64991 | 895 ft | 17 kts | 359° |
| 2026-05-07 13:32 | 39.04065 | -84.64995 | 894 ft | 17 kts | 359° |
| 2026-05-07 13:33 | 39.04181 | -84.64996 | 895 ft | 16 kts | 2° |
| 2026-05-07 13:33 | 39.04292 | -84.64989 | 893 ft | 16 kts | 1° |
| 2026-05-07 13:33 | 39.04399 | -84.64989 | 891 ft | 15 kts | 359° |
| 2026-05-07 13:33 | 39.04460 | -84.65077 | 888 ft | 16 kts | 271° |
| 2026-05-07 13:34 | 39.04461 | -84.65212 | 885 ft | 15 kts | 270° |
| 2026-05-07 13:34 | 39.04569 | -84.65301 | 884 ft | 11 kts | 5° |
| 2026-05-07 13:34 | 39.04624 | -84.65342 | 884 ft | 11 kts | 284° |
| 2026-05-07 13:35 | 39.04629 | -84.65449 | 883 ft | 21 kts | 270° |
| 2026-05-07 13:35 | 39.04629 | -84.66005 | 877 ft | 102 kts | 270° |
| 2026-05-07 13:35 | 39.04639 | -84.67199 | 883 ft | 163 kts | 271° |
| 2026-05-07 13:35 | 39.04641 | -84.68739 | 1479 ft | 175 kts | 273° |
| 2026-05-07 13:36 | 39.04658 | -84.70352 | 2311 ft | 183 kts | 273° |
| 2026-05-07 13:36 | 39.04656 | -84.72091 | 2852 ft | 200 kts | 272° |
| 2026-05-07 13:36 | 39.04645 | -84.73854 | 3460 ft | 199 kts | 272° |
| 2026-05-07 13:36 | 39.04645 | -84.75644 | 4000 ft | 203 kts | 272° |
| 2026-05-07 13:37 | 39.04635 | -84.77522 | 4441 ft | 221 kts | 271° |
| 2026-05-07 13:37 | 39.04624 | -84.79615 | 4734 ft | 242 kts | 271° |
| 2026-05-07 13:37 | 39.04613 | -84.81809 | 5440 ft | 249 kts | 271° |
| 2026-05-07 13:37 | 39.04609 | -84.84082 | 6063 ft | 256 kts | 271° |
| 2026-05-07 13:38 | 39.04603 | -84.86386 | 6707 ft | 260 kts | 271° |
| 2026-05-07 13:38 | 39.04615 | -84.88734 | 7362 ft | 265 kts | 271° |
| 2026-05-07 13:38 | 39.04633 | -84.91116 | 7991 ft | 266 kts | 271° |
| 2026-05-07 13:38 | 39.04649 | -84.93493 | 8601 ft | 265 kts | 271° |
| 2026-05-07 13:39 | 39.04899 | -84.95832 | 9223 ft | 268 kts | 289° |
| 2026-05-07 13:39 | 39.05600 | -84.98064 | 9878 ft | 271 kts | 291° |
| 2026-05-07 13:39 | 39.06313 | -85.00320 | 10531 ft | 273 kts | 290° |
| 2026-05-07 13:39 | 39.07026 | -85.02614 | 11135 ft | 280 kts | 289° |
| 2026-05-07 13:40 | 39.07824 | -85.04958 | 11587 ft | 293 kts | 292° |
| 2026-05-07 13:40 | 39.08739 | -85.07396 | 11872 ft | 312 kts | 293° |
| 2026-05-07 13:40 | 39.09720 | -85.09958 | 12128 ft | 326 kts | 293° |
| 2026-05-07 13:40 | 39.10733 | -85.12598 | 12768 ft | 328 kts | 292° |
| 2026-05-07 13:41 | 39.11739 | -85.15232 | 13622 ft | 326 kts | 292° |
| 2026-05-07 13:41 | 39.12733 | -85.17852 | 14396 ft | 326 kts | 291° |
| 2026-05-07 13:41 | 39.13727 | -85.20485 | 15143 ft | 326 kts | 291° |
| 2026-05-07 13:41 | 39.14716 | -85.23117 | 15840 ft | 327 kts | 290° |
| 2026-05-07 13:42 | 39.15709 | -85.25762 | 16542 ft | 328 kts | 290° |
| 2026-05-07 13:42 | 39.16700 | -85.28406 | 17258 ft | 328 kts | 290° |
| 2026-05-07 13:42 | 39.17689 | -85.31049 | 17944 ft | 328 kts | 289° |
| 2026-05-07 13:42 | 39.18684 | -85.33707 | 18530 ft | 330 kts | 289° |
| 2026-05-07 13:43 | 39.19683 | -85.36382 | 19163 ft | 332 kts | 289° |
| 2026-05-07 13:43 | 39.20686 | -85.39070 | 19743 ft | 334 kts | 289° |
| 2026-05-07 13:43 | 39.21824 | -85.41706 | 20301 ft | 344 kts | 297° |
| 2026-05-07 13:43 | 39.23334 | -85.44139 | 20840 ft | 349 kts | 300° |
| 2026-05-07 13:44 | 39.24894 | -85.46556 | 21364 ft | 352 kts | 300° |
| 2026-05-07 13:44 | 39.26468 | -85.48989 | 21840 ft | 354 kts | 299° |
| 2026-05-07 13:44 | 39.28023 | -85.51403 | 22343 ft | 355 kts | 299° |
| 2026-05-07 13:44 | 39.29598 | -85.53864 | 22799 ft | 357 kts | 298° |
| 2026-05-07 13:45 | 39.31182 | -85.56351 | 23244 ft | 359 kts | 298° |
| 2026-05-07 13:45 | 39.32768 | -85.58847 | 23727 ft | 360 kts | 298° |
| 2026-05-07 13:45 | 39.34355 | -85.61351 | 24157 ft | 362 kts | 298° |
| 2026-05-07 13:45 | 39.35949 | -85.63874 | 24568 ft | 363 kts | 298° |
| 2026-05-07 13:46 | 39.37550 | -85.66408 | 24987 ft | 365 kts | 298° |
| 2026-05-07 13:46 | 39.39155 | -85.68952 | 25402 ft | 366 kts | 297° |
| 2026-05-07 13:46 | 39.40767 | -85.71505 | 25811 ft | 367 kts | 297° |
| 2026-05-07 13:46 | 39.42384 | -85.74072 | 26184 ft | 368 kts | 297° |
| 2026-05-07 13:47 | 39.43961 | -85.76652 | 26730 ft | 359 kts | 293° |
| 2026-05-07 13:47 | 39.45144 | -85.79430 | 26990 ft | 351 kts | 284° |
| 2026-05-07 13:47 | 39.46011 | -85.82395 | 27128 ft | 352 kts | 279° |
| 2026-05-07 13:47 | 39.46652 | -85.85437 | 27469 ft | 347 kts | 274° |
| 2026-05-07 13:48 | 39.46985 | -85.88506 | 27879 ft | 343 kts | 271° |
| 2026-05-07 13:48 | 39.47247 | -85.91577 | 28210 ft | 344 kts | 270° |
| 2026-05-07 13:48 | 39.47496 | -85.94659 | 28514 ft | 344 kts | 270° |
| 2026-05-07 13:48 | 39.47744 | -85.97742 | 28838 ft | 345 kts | 270° |
| 2026-05-07 13:49 | 39.47995 | -86.00841 | 29121 ft | 346 kts | 270° |
| 2026-05-07 13:49 | 39.48248 | -86.03950 | 29339 ft | 349 kts | 270° |
| 2026-05-07 13:49 | 39.48505 | -86.07091 | 29546 ft | 352 kts | 271° |
| 2026-05-07 13:49 | 39.48766 | -86.10248 | 29847 ft | 352 kts | 271° |
| 2026-05-07 13:50 | 39.49027 | -86.13397 | 30139 ft | 352 kts | 270° |
| 2026-05-07 13:50 | 39.49286 | -86.16547 | 30392 ft | 353 kts | 270° |
| 2026-05-07 13:50 | 39.49545 | -86.19716 | 30613 ft | 354 kts | 270° |
| 2026-05-07 13:50 | 39.49717 | -86.21820 | 30798 ft | 354 kts | 270° |
| 2026-05-07 13:51 | 39.49977 | -86.24995 | 30986 ft | 355 kts | 270° |
| 2026-05-07 13:51 | 39.50237 | -86.28180 | 31159 ft | 357 kts | 270° |
| 2026-05-07 13:51 | 39.50497 | -86.31378 | 31338 ft | 357 kts | 270° |
| 2026-05-07 13:51 | 39.50758 | -86.34582 | 31466 ft | 359 kts | 270° |
| 2026-05-07 13:52 | 39.51018 | -86.37803 | 31616 ft | 360 kts | 270° |
| 2026-05-07 13:52 | 39.51278 | -86.41019 | 31779 ft | 359 kts | 270° |
| 2026-05-07 13:52 | 39.51534 | -86.44241 | 31911 ft | 359 kts | 270° |
| 2026-05-07 13:52 | 39.51791 | -86.47421 | 32417 ft | 350 kts | 270° |
| 2026-05-07 13:53 | 39.52043 | -86.50519 | 33015 ft | 341 kts | 270° |
| 2026-05-07 13:53 | 39.52286 | -86.53529 | 33636 ft | 332 kts | 270° |
| 2026-05-07 13:53 | 39.52520 | -86.56475 | 34071 ft | 327 kts | 270° |
| 2026-05-07 13:54 | 39.52983 | -86.62340 | 34085 ft | 325 kts | 269° |
| 2026-05-07 13:54 | 39.53433 | -86.68116 | 34103 ft | 325 kts | 269° |
| 2026-05-07 13:55 | 39.53883 | -86.73943 | 34108 ft | 326 kts | 269° |
| 2026-05-07 13:55 | 39.54334 | -86.79789 | 34109 ft | 327 kts | 270° |
| 2026-05-07 13:56 | 39.54784 | -86.85658 | 34104 ft | 327 kts | 270° |
| 2026-05-07 13:56 | 39.55233 | -86.91532 | 34101 ft | 328 kts | 270° |
| 2026-05-07 13:57 | 39.55680 | -86.97429 | 34103 ft | 329 kts | 270° |
| 2026-05-07 13:57 | 39.56125 | -87.03337 | 34100 ft | 330 kts | 270° |
| 2026-05-07 13:58 | 39.56569 | -87.09262 | 34104 ft | 331 kts | 270° |
| 2026-05-07 13:58 | 39.57010 | -87.15199 | 34109 ft | 332 kts | 270° |
| 2026-05-07 13:59 | 39.57449 | -87.21160 | 34115 ft | 333 kts | 270° |
| 2026-05-07 13:59 | 39.57888 | -87.27139 | 34113 ft | 334 kts | 270° |
| 2026-05-07 14:00 | 39.58325 | -87.33147 | 34109 ft | 335 kts | 270° |
| 2026-05-07 14:00 | 39.58865 | -87.39171 | 34111 ft | 338 kts | 272° |
| 2026-05-07 14:01 | 39.59562 | -87.45211 | 34111 ft | 339 kts | 272° |
| 2026-05-07 14:01 | 39.60260 | -87.51273 | 34111 ft | 340 kts | 272° |
| 2026-05-07 14:02 | 39.60943 | -87.57357 | 34112 ft | 341 kts | 272° |
| 2026-05-07 14:02 | 39.61618 | -87.63463 | 34116 ft | 342 kts | 272° |
| 2026-05-07 14:03 | 39.62289 | -87.69585 | 34109 ft | 343 kts | 272° |
| 2026-05-07 14:03 | 39.62958 | -87.75719 | 34107 ft | 343 kts | 272° |
| 2026-05-07 14:04 | 39.63623 | -87.81867 | 34113 ft | 344 kts | 272° |
| 2026-05-07 14:04 | 39.64279 | -87.87988 | 34114 ft | 345 kts | 272° |
| 2026-05-07 14:05 | 39.64942 | -87.94174 | 34109 ft | 347 kts | 272° |
| 2026-05-07 14:05 | 39.65602 | -88.00375 | 34111 ft | 348 kts | 272° |
| 2026-05-07 14:06 | 39.66264 | -88.06605 | 34104 ft | 349 kts | 272° |
| 2026-05-07 14:06 | 39.66926 | -88.12858 | 34100 ft | 350 kts | 272° |
| 2026-05-07 14:07 | 39.67583 | -88.19117 | 34101 ft | 350 kts | 272° |
| 2026-05-07 14:07 | 39.68236 | -88.25381 | 34103 ft | 350 kts | 272° |
| 2026-05-07 14:08 | 39.68887 | -88.31647 | 34098 ft | 350 kts | 272° |
| 2026-05-07 14:08 | 39.69530 | -88.37885 | 34099 ft | 348 kts | 272° |
| 2026-05-07 14:09 | 39.70170 | -88.44111 | 34102 ft | 347 kts | 272° |
| 2026-05-07 14:09 | 39.70804 | -88.50321 | 34101 ft | 346 kts | 272° |
| 2026-05-07 14:10 | 39.71429 | -88.56469 | 34102 ft | 345 kts | 272° |
| 2026-05-07 14:10 | 39.72054 | -88.62652 | 34102 ft | 345 kts | 272° |
| 2026-05-07 14:11 | 39.72673 | -88.68819 | 34102 ft | 344 kts | 272° |
| 2026-05-07 14:11 | 39.73289 | -88.74986 | 34108 ft | 346 kts | 271° |
| 2026-05-07 14:12 | 39.73911 | -88.81259 | 34111 ft | 354 kts | 272° |
| 2026-05-07 14:12 | 39.74425 | -88.87671 | 34103 ft | 358 kts | 267° |
| 2026-05-07 14:13 | 39.74169 | -88.94114 | 34106 ft | 358 kts | 263° |
| 2026-05-07 14:13 | 39.73801 | -89.00577 | 34099 ft | 359 kts | 263° |
| 2026-05-07 14:14 | 39.73437 | -89.07062 | 34100 ft | 360 kts | 263° |
| 2026-05-07 14:14 | 39.73077 | -89.13539 | 34099 ft | 359 kts | 263° |
| 2026-05-07 14:15 | 39.72717 | -89.20005 | 34100 ft | 359 kts | 263° |
| 2026-05-07 14:15 | 39.72355 | -89.26458 | 34108 ft | 358 kts | 263° |
| 2026-05-07 14:16 | 39.71992 | -89.32874 | 34111 ft | 358 kts | 263° |
| 2026-05-07 14:16 | 39.71623 | -89.39337 | 34108 ft | 359 kts | 263° |
| 2026-05-07 14:17 | 39.71248 | -89.45811 | 34111 ft | 360 kts | 263° |
| 2026-05-07 14:17 | 39.70870 | -89.52306 | 34112 ft | 361 kts | 264° |
| 2026-05-07 14:18 | 39.70487 | -89.58825 | 34104 ft | 363 kts | 264° |
| 2026-05-07 14:18 | 39.70099 | -89.65372 | 34106 ft | 364 kts | 264° |
| 2026-05-07 14:19 | 39.69705 | -89.71949 | 34102 ft | 366 kts | 264° |
| 2026-05-07 14:19 | 39.69305 | -89.78570 | 34104 ft | 369 kts | 264° |
| 2026-05-07 14:20 | 39.68897 | -89.85225 | 34102 ft | 370 kts | 263° |
| 2026-05-07 14:20 | 39.68486 | -89.91897 | 34103 ft | 371 kts | 263° |
| 2026-05-07 14:21 | 39.68070 | -89.98586 | 34102 ft | 372 kts | 263° |
| 2026-05-07 14:21 | 39.67649 | -90.05277 | 34101 ft | 372 kts | 264° |
| 2026-05-07 14:22 | 39.67225 | -90.11967 | 34103 ft | 372 kts | 264° |
| 2026-05-07 14:22 | 39.66798 | -90.18652 | 34103 ft | 371 kts | 264° |
| 2026-05-07 14:23 | 39.66366 | -90.25332 | 34101 ft | 371 kts | 263° |
| 2026-05-07 14:23 | 39.65935 | -90.31996 | 34104 ft | 370 kts | 263° |
| 2026-05-07 14:24 | 39.65498 | -90.38643 | 34099 ft | 369 kts | 263° |
| 2026-05-07 14:24 | 39.65060 | -90.45227 | 34103 ft | 368 kts | 263° |
| 2026-05-07 14:25 | 39.64618 | -90.51832 | 34110 ft | 367 kts | 263° |
| 2026-05-07 14:25 | 39.64173 | -90.58416 | 34111 ft | 366 kts | 263° |
| 2026-05-07 14:26 | 39.63727 | -90.64984 | 34114 ft | 365 kts | 263° |
| 2026-05-07 14:26 | 39.63278 | -90.71534 | 34116 ft | 364 kts | 263° |
| 2026-05-07 14:27 | 39.62826 | -90.78064 | 34119 ft | 363 kts | 263° |
| 2026-05-07 14:27 | 39.62372 | -90.84579 | 34118 ft | 362 kts | 263° |
| 2026-05-07 14:28 | 39.61915 | -90.91087 | 34123 ft | 362 kts | 263° |
| 2026-05-07 14:28 | 39.61452 | -90.97596 | 34123 ft | 362 kts | 263° |
| 2026-05-07 14:29 | 39.60989 | -91.04070 | 34110 ft | 363 kts | 263° |
| 2026-05-07 14:29 | 39.60520 | -91.10596 | 34109 ft | 364 kts | 263° |
| 2026-05-07 14:30 | 39.60045 | -91.17131 | 34099 ft | 364 kts | 263° |
| 2026-05-07 14:30 | 39.59565 | -91.23672 | 34101 ft | 364 kts | 263° |
| 2026-05-07 14:31 | 39.59084 | -91.30219 | 34091 ft | 365 kts | 263° |
| 2026-05-07 14:31 | 39.58597 | -91.36777 | 34091 ft | 366 kts | 263° |
| 2026-05-07 14:32 | 39.58106 | -91.43350 | 34099 ft | 366 kts | 264° |
| 2026-05-07 14:32 | 39.57611 | -91.49926 | 34100 ft | 367 kts | 264° |
| 2026-05-07 14:33 | 39.57109 | -91.56525 | 34088 ft | 368 kts | 264° |
| 2026-05-07 14:33 | 39.56602 | -91.63139 | 34093 ft | 369 kts | 264° |
| 2026-05-07 14:34 | 39.56095 | -91.69715 | 34094 ft | 370 kts | 264° |
| 2026-05-07 14:34 | 39.55579 | -91.76349 | 34102 ft | 370 kts | 264° |
| 2026-05-07 14:35 | 39.55058 | -91.82992 | 34105 ft | 371 kts | 264° |
| 2026-05-07 14:35 | 39.54533 | -91.89649 | 34091 ft | 372 kts | 264° |
| 2026-05-07 14:36 | 39.54003 | -91.96319 | 34089 ft | 372 kts | 264° |
| 2026-05-07 14:36 | 39.53468 | -92.02988 | 34083 ft | 373 kts | 264° |
| 2026-05-07 14:37 | 39.53021 | -92.08548 | 34096 ft | 373 kts | 264° |
| 2026-05-07 14:37 | 39.52204 | -92.18589 | 34090 ft | 374 kts | 264° |
| 2026-05-07 14:38 | 39.51653 | -92.25296 | 34088 ft | 375 kts | 264° |
| 2026-05-07 14:38 | 39.51100 | -92.32011 | 34095 ft | 375 kts | 264° |
| 2026-05-07 14:39 | 39.50540 | -92.38736 | 34093 ft | 375 kts | 264° |
| 2026-05-07 14:39 | 39.49977 | -92.45453 | 34093 ft | 375 kts | 263° |
| 2026-05-07 14:40 | 39.49412 | -92.52166 | 34087 ft | 375 kts | 263° |
| 2026-05-07 14:40 | 39.48841 | -92.58884 | 34084 ft | 375 kts | 263° |
| 2026-05-07 14:41 | 39.48268 | -92.65593 | 34085 ft | 375 kts | 263° |
| 2026-05-07 14:41 | 39.47690 | -92.72297 | 34081 ft | 375 kts | 263° |
| 2026-05-07 14:42 | 39.47109 | -92.78999 | 34084 ft | 375 kts | 263° |
| 2026-05-07 14:42 | 39.46523 | -92.85697 | 34085 ft | 374 kts | 263° |
| 2026-05-07 14:43 | 39.45940 | -92.92345 | 34080 ft | 374 kts | 263° |
| 2026-05-07 14:43 | 39.45349 | -92.99032 | 34090 ft | 374 kts | 263° |
| 2026-05-07 14:44 | 39.44751 | -93.05741 | 34097 ft | 375 kts | 263° |
| 2026-05-07 14:44 | 39.44149 | -93.12451 | 34091 ft | 376 kts | 263° |
| 2026-05-07 14:45 | 39.43540 | -93.19187 | 34091 ft | 378 kts | 263° |
| 2026-05-07 14:45 | 39.42926 | -93.25942 | 34094 ft | 379 kts | 263° |
| 2026-05-07 14:46 | 39.42307 | -93.32720 | 34093 ft | 380 kts | 263° |
| 2026-05-07 14:46 | 39.41681 | -93.39522 | 34088 ft | 381 kts | 264° |
| 2026-05-07 14:47 | 39.41051 | -93.46338 | 34100 ft | 382 kts | 263° |
| 2026-05-07 14:47 | 39.40418 | -93.53130 | 34091 ft | 383 kts | 263° |
| 2026-05-07 14:48 | 39.39776 | -93.59979 | 34084 ft | 384 kts | 264° |
| 2026-05-07 14:48 | 39.39221 | -93.65843 | 34097 ft | 384 kts | 264° |
| 2026-05-07 14:49 | 39.38569 | -93.72706 | 34091 ft | 385 kts | 263° |
| 2026-05-07 14:49 | 39.37911 | -93.79583 | 34094 ft | 386 kts | 263° |
| 2026-05-07 14:50 | 39.37249 | -93.86465 | 34091 ft | 386 kts | 263° |
| 2026-05-07 14:50 | 39.36582 | -93.93364 | 34091 ft | 387 kts | 264° |
| 2026-05-07 14:51 | 39.35910 | -94.00262 | 34091 ft | 387 kts | 264° |
| 2026-05-07 14:51 | 39.35233 | -94.07174 | 34090 ft | 388 kts | 264° |
| 2026-05-07 14:52 | 39.34552 | -94.14095 | 34092 ft | 389 kts | 264° |
| 2026-05-07 14:52 | 39.33862 | -94.21028 | 34097 ft | 390 kts | 264° |
| 2026-05-07 14:53 | 39.33173 | -94.27938 | 34097 ft | 391 kts | 264° |
| 2026-05-07 14:53 | 39.32473 | -94.34906 | 34094 ft | 392 kts | 264° |
| 2026-05-07 14:54 | 39.31768 | -94.41879 | 34092 ft | 392 kts | 264° |
| 2026-05-07 14:54 | 39.31059 | -94.48855 | 34091 ft | 392 kts | 264° |
| 2026-05-07 14:55 | 39.30346 | -94.55826 | 34093 ft | 392 kts | 264° |
| 2026-05-07 14:55 | 39.29629 | -94.62801 | 34086 ft | 392 kts | 264° |
| 2026-05-07 14:56 | 39.28909 | -94.69772 | 34078 ft | 392 kts | 264° |
| 2026-05-07 14:56 | 39.28187 | -94.76736 | 34070 ft | 391 kts | 264° |
| 2026-05-07 14:57 | 39.27476 | -94.83707 | 34072 ft | 391 kts | 264° |
| 2026-05-07 14:57 | 39.26765 | -94.90668 | 34077 ft | 391 kts | 264° |
| 2026-05-07 14:58 | 39.26051 | -94.97624 | 34079 ft | 391 kts | 265° |
| 2026-05-07 14:58 | 39.25330 | -95.04581 | 34086 ft | 391 kts | 265° |
| 2026-05-07 14:59 | 39.24610 | -95.11494 | 34090 ft | 392 kts | 265° |
| 2026-05-07 14:59 | 39.23881 | -95.18459 | 34084 ft | 392 kts | 265° |
| 2026-05-07 15:00 | 39.23146 | -95.25428 | 34082 ft | 392 kts | 265° |
| 2026-05-07 15:00 | 39.22406 | -95.32405 | 34082 ft | 393 kts | 265° |
| 2026-05-07 15:01 | 39.21662 | -95.39390 | 34083 ft | 393 kts | 265° |
| 2026-05-07 15:01 | 39.20912 | -95.46382 | 34083 ft | 394 kts | 265° |
| 2026-05-07 15:02 | 39.20157 | -95.53377 | 34088 ft | 394 kts | 265° |
| 2026-05-07 15:02 | 39.19397 | -95.60373 | 34087 ft | 395 kts | 265° |
| 2026-05-07 15:03 | 39.18632 | -95.67386 | 34085 ft | 395 kts | 265° |
| 2026-05-07 15:03 | 39.17863 | -95.74413 | 34079 ft | 396 kts | 265° |
| 2026-05-07 15:04 | 39.17087 | -95.81440 | 34081 ft | 396 kts | 265° |
| 2026-05-07 15:04 | 39.16311 | -95.88429 | 34070 ft | 397 kts | 265° |
| 2026-05-07 15:05 | 39.15523 | -95.95479 | 34077 ft | 397 kts | 265° |
| 2026-05-07 15:05 | 39.14732 | -96.02521 | 34073 ft | 397 kts | 265° |
| 2026-05-07 15:06 | 39.13936 | -96.09569 | 34074 ft | 398 kts | 266° |
| 2026-05-07 15:06 | 39.13134 | -96.16643 | 34071 ft | 399 kts | 265° |
| 2026-05-07 15:07 | 39.12326 | -96.23724 | 34075 ft | 400 kts | 265° |
| 2026-05-07 15:07 | 39.11510 | -96.30834 | 34075 ft | 401 kts | 265° |
| 2026-05-07 15:08 | 39.10689 | -96.37946 | 34075 ft | 402 kts | 265° |
| 2026-05-07 15:08 | 39.09861 | -96.45072 | 34073 ft | 403 kts | 265° |
| 2026-05-07 15:09 | 39.09030 | -96.52198 | 34069 ft | 403 kts | 265° |
| 2026-05-07 15:09 | 39.08194 | -96.59323 | 34076 ft | 403 kts | 265° |
| 2026-05-07 15:10 | 39.07358 | -96.66430 | 34066 ft | 397 kts | 263° |
| 2026-05-07 15:10 | 39.06534 | -96.73354 | 34069 ft | 390 kts | 263° |
| 2026-05-07 15:11 | 39.05709 | -96.80268 | 34064 ft | 391 kts | 263° |
| 2026-05-07 15:11 | 39.05161 | -96.84850 | 34067 ft | 392 kts | 263° |
| 2026-05-07 15:12 | 39.04291 | -96.92099 | 34066 ft | 393 kts | 263° |
| 2026-05-07 15:12 | 39.03452 | -96.99048 | 34065 ft | 394 kts | 263° |
| 2026-05-07 15:13 | 39.02606 | -97.06009 | 34062 ft | 394 kts | 262° |
| 2026-05-07 15:13 | 39.01755 | -97.12975 | 34067 ft | 395 kts | 262° |
| 2026-05-07 15:14 | 39.00904 | -97.19901 | 34066 ft | 395 kts | 262° |
| 2026-05-07 15:14 | 39.00044 | -97.26873 | 34065 ft | 395 kts | 262° |
| 2026-05-07 15:15 | 38.99179 | -97.33848 | 34067 ft | 395 kts | 262° |
| 2026-05-07 15:15 | 38.98311 | -97.40809 | 34069 ft | 394 kts | 262° |
| 2026-05-07 15:16 | 38.97441 | -97.47762 | 34074 ft | 394 kts | 262° |
| 2026-05-07 15:16 | 38.96565 | -97.54716 | 34075 ft | 394 kts | 262° |
| 2026-05-07 15:17 | 38.95685 | -97.61675 | 34079 ft | 394 kts | 262° |
| 2026-05-07 15:17 | 38.94799 | -97.68644 | 34074 ft | 396 kts | 262° |
| 2026-05-07 15:18 | 38.93906 | -97.75635 | 34083 ft | 397 kts | 262° |
| 2026-05-07 15:18 | 38.93008 | -97.82638 | 34083 ft | 398 kts | 262° |
| 2026-05-07 15:19 | 38.92103 | -97.89660 | 34086 ft | 398 kts | 262° |
| 2026-05-07 15:19 | 38.91196 | -97.96670 | 34079 ft | 399 kts | 261° |
| 2026-05-07 15:20 | 38.90280 | -98.03691 | 34081 ft | 399 kts | 261° |
| 2026-05-07 15:20 | 38.89359 | -98.10719 | 34086 ft | 399 kts | 261° |
| 2026-05-07 15:21 | 38.88434 | -98.17745 | 34081 ft | 399 kts | 261° |
| 2026-05-07 15:21 | 38.87510 | -98.24733 | 34089 ft | 399 kts | 261° |
| 2026-05-07 15:22 | 38.86577 | -98.31765 | 34083 ft | 400 kts | 261° |
| 2026-05-07 15:22 | 38.85639 | -98.38796 | 34080 ft | 400 kts | 261° |
| 2026-05-07 15:23 | 38.84697 | -98.45823 | 34083 ft | 400 kts | 261° |
| 2026-05-07 15:23 | 38.83749 | -98.52855 | 34071 ft | 400 kts | 261° |
| 2026-05-07 15:24 | 38.82958 | -98.58697 | 34059 ft | 400 kts | 261° |
| 2026-05-07 15:24 | 38.82003 | -98.65725 | 34050 ft | 400 kts | 261° |
| 2026-05-07 15:25 | 38.81043 | -98.72752 | 34037 ft | 400 kts | 261° |
| 2026-05-07 15:25 | 38.80080 | -98.79780 | 34033 ft | 400 kts | 261° |
| 2026-05-07 15:26 | 38.79112 | -98.86807 | 34030 ft | 400 kts | 261° |
| 2026-05-07 15:26 | 38.78140 | -98.93836 | 34032 ft | 400 kts | 261° |
| 2026-05-07 15:27 | 38.77163 | -99.00860 | 34041 ft | 400 kts | 261° |
| 2026-05-07 15:27 | 38.76183 | -99.07876 | 34049 ft | 400 kts | 261° |
| 2026-05-07 15:28 | 38.75197 | -99.14900 | 34051 ft | 400 kts | 261° |
| 2026-05-07 15:28 | 38.74209 | -99.21915 | 34056 ft | 400 kts | 261° |
| 2026-05-07 15:29 | 38.73221 | -99.28892 | 34059 ft | 401 kts | 261° |
| 2026-05-07 15:29 | 38.72221 | -99.35917 | 34056 ft | 401 kts | 261° |
| 2026-05-07 15:30 | 38.71217 | -99.42943 | 34057 ft | 401 kts | 261° |
| 2026-05-07 15:30 | 38.70208 | -99.49981 | 34056 ft | 401 kts | 261° |
| 2026-05-07 15:31 | 38.69197 | -99.57003 | 34055 ft | 401 kts | 261° |
| 2026-05-07 15:31 | 38.68183 | -99.64019 | 34055 ft | 401 kts | 261° |
| 2026-05-07 15:32 | 38.67159 | -99.71036 | 34055 ft | 401 kts | 261° |
| 2026-05-07 15:32 | 38.66141 | -99.77999 | 34057 ft | 401 kts | 261° |
| 2026-05-07 15:33 | 38.65106 | -99.85062 | 34058 ft | 402 kts | 261° |
| 2026-05-07 15:33 | 38.64079 | -99.92036 | 34064 ft | 402 kts | 260° |
| 2026-05-07 15:34 | 38.63040 | -99.99058 | 34065 ft | 402 kts | 260° |
| 2026-05-07 15:34 | 38.61995 | -100.06082 | 34052 ft | 403 kts | 260° |
| 2026-05-07 15:35 | 38.60944 | -100.13127 | 34059 ft | 403 kts | 260° |
| 2026-05-07 15:35 | 38.59886 | -100.20182 | 34055 ft | 404 kts | 260° |
| 2026-05-07 15:36 | 38.58824 | -100.27239 | 34060 ft | 404 kts | 260° |
| 2026-05-07 15:36 | 38.57755 | -100.34305 | 34065 ft | 405 kts | 260° |
| 2026-05-07 15:37 | 38.56689 | -100.41328 | 34065 ft | 405 kts | 260° |
| 2026-05-07 15:37 | 38.55610 | -100.48400 | 34063 ft | 405 kts | 260° |
| 2026-05-07 15:38 | 38.54528 | -100.55470 | 34065 ft | 406 kts | 260° |
| 2026-05-07 15:38 | 38.53440 | -100.62545 | 34078 ft | 406 kts | 260° |
| 2026-05-07 15:39 | 38.52347 | -100.69626 | 34074 ft | 407 kts | 261° |
| 2026-05-07 15:39 | 38.51246 | -100.76721 | 34076 ft | 408 kts | 261° |
| 2026-05-07 15:40 | 38.50148 | -100.83782 | 34082 ft | 408 kts | 261° |
| 2026-05-07 15:40 | 38.49034 | -100.90897 | 34087 ft | 409 kts | 260° |
| 2026-05-07 15:41 | 38.47863 | -100.98023 | 34079 ft | 411 kts | 260° |
| 2026-05-07 15:41 | 38.46656 | -101.05157 | 34085 ft | 412 kts | 260° |
| 2026-05-07 15:42 | 38.45449 | -101.12304 | 34076 ft | 413 kts | 260° |
| 2026-05-07 15:42 | 38.44237 | -101.19482 | 34076 ft | 414 kts | 260° |
| 2026-05-07 15:43 | 38.43021 | -101.26671 | 34072 ft | 415 kts | 260° |
| 2026-05-07 15:43 | 38.41798 | -101.33886 | 34065 ft | 416 kts | 260° |
| 2026-05-07 15:44 | 38.40566 | -101.41109 | 34063 ft | 418 kts | 260° |
| 2026-05-07 15:44 | 38.39327 | -101.48346 | 34065 ft | 419 kts | 260° |
| 2026-05-07 15:45 | 38.38078 | -101.55614 | 34073 ft | 420 kts | 260° |
| 2026-05-07 15:45 | 38.36832 | -101.62839 | 34071 ft | 420 kts | 260° |
| 2026-05-07 15:46 | 38.34938 | -101.73763 | 34083 ft | 422 kts | 260° |
| 2026-05-07 15:47 | 38.33667 | -101.81060 | 34085 ft | 422 kts | 259° |
| 2026-05-07 15:47 | 38.32390 | -101.88366 | 34090 ft | 423 kts | 259° |
| 2026-05-07 15:48 | 38.31104 | -101.95691 | 34096 ft | 423 kts | 259° |
| 2026-05-07 15:48 | 38.29813 | -102.03017 | 34094 ft | 424 kts | 259° |
| 2026-05-07 15:49 | 38.28518 | -102.10336 | 34091 ft | 424 kts | 259° |
| 2026-05-07 15:49 | 38.27217 | -102.17665 | 34100 ft | 425 kts | 259° |
| 2026-05-07 15:50 | 38.25911 | -102.24993 | 34095 ft | 425 kts | 259° |
| 2026-05-07 15:50 | 38.24599 | -102.32317 | 34102 ft | 425 kts | 259° |
| 2026-05-07 15:51 | 38.23283 | -102.39643 | 34108 ft | 425 kts | 259° |
| 2026-05-07 15:51 | 38.21962 | -102.46966 | 34111 ft | 425 kts | 259° |
| 2026-05-07 15:52 | 38.20641 | -102.54263 | 34110 ft | 425 kts | 259° |
| 2026-05-07 15:52 | 38.19311 | -102.61584 | 34121 ft | 425 kts | 259° |
| 2026-05-07 15:53 | 38.17974 | -102.68904 | 34119 ft | 425 kts | 259° |
| 2026-05-07 15:53 | 38.16638 | -102.76172 | 34117 ft | 425 kts | 259° |
| 2026-05-07 15:54 | 38.15292 | -102.83488 | 34122 ft | 425 kts | 259° |
| 2026-05-07 15:54 | 38.13940 | -102.90802 | 34121 ft | 425 kts | 259° |
| 2026-05-07 15:55 | 38.12582 | -102.98122 | 34120 ft | 426 kts | 259° |
| 2026-05-07 15:55 | 38.11217 | -103.05452 | 34118 ft | 427 kts | 259° |
| 2026-05-07 15:56 | 38.09846 | -103.12798 | 34127 ft | 428 kts | 259° |
| 2026-05-07 15:56 | 38.08468 | -103.20154 | 34131 ft | 428 kts | 259° |
| 2026-05-07 15:57 | 38.07082 | -103.27521 | 34126 ft | 430 kts | 259° |
| 2026-05-07 15:57 | 38.05686 | -103.34908 | 34140 ft | 431 kts | 259° |
| 2026-05-07 15:58 | 38.04293 | -103.42258 | 34134 ft | 432 kts | 259° |
| 2026-05-07 15:58 | 38.02881 | -103.49675 | 34137 ft | 433 kts | 259° |
| 2026-05-07 15:59 | 38.01463 | -103.57098 | 34140 ft | 434 kts | 259° |
| 2026-05-07 15:59 | 38.00036 | -103.64540 | 34137 ft | 435 kts | 259° |
| 2026-05-07 16:00 | 37.98602 | -103.72000 | 34131 ft | 436 kts | 259° |
| 2026-05-07 16:00 | 37.97157 | -103.79486 | 34130 ft | 437 kts | 259° |
| 2026-05-07 16:01 | 37.95707 | -103.86969 | 34133 ft | 437 kts | 259° |
| 2026-05-07 16:01 | 37.94250 | -103.94456 | 34127 ft | 437 kts | 259° |
| 2026-05-07 16:02 | 37.92790 | -104.01933 | 34142 ft | 437 kts | 259° |
| 2026-05-07 16:02 | 37.91324 | -104.09409 | 34140 ft | 437 kts | 259° |
| 2026-05-07 16:03 | 37.89855 | -104.16876 | 34138 ft | 437 kts | 258° |
| 2026-05-07 16:03 | 37.88383 | -104.24335 | 34143 ft | 437 kts | 258° |
| 2026-05-07 16:04 | 37.86909 | -104.31780 | 34151 ft | 436 kts | 258° |
| 2026-05-07 16:04 | 37.85431 | -104.39220 | 34162 ft | 436 kts | 258° |
| 2026-05-07 16:05 | 37.83955 | -104.46618 | 34170 ft | 436 kts | 258° |
| 2026-05-07 16:05 | 37.82464 | -104.54058 | 34180 ft | 436 kts | 258° |
| 2026-05-07 16:06 | 37.80960 | -104.61541 | 34181 ft | 436 kts | 258° |
| 2026-05-07 16:06 | 37.79461 | -104.68977 | 34198 ft | 436 kts | 258° |
| 2026-05-07 16:07 | 37.77967 | -104.76368 | 34200 ft | 437 kts | 258° |
| 2026-05-07 16:07 | 37.76456 | -104.83812 | 34204 ft | 438 kts | 258° |
| 2026-05-07 16:08 | 37.74939 | -104.91261 | 34225 ft | 438 kts | 258° |
| 2026-05-07 16:08 | 37.73416 | -104.98714 | 34225 ft | 438 kts | 258° |
| 2026-05-07 16:09 | 37.71885 | -105.06171 | 34257 ft | 438 kts | 258° |
| 2026-05-07 16:09 | 37.70352 | -105.13623 | 34287 ft | 439 kts | 258° |
| 2026-05-07 16:10 | 37.68811 | -105.21080 | 34317 ft | 439 kts | 258° |
| 2026-05-07 16:10 | 37.67262 | -105.28549 | 34324 ft | 440 kts | 258° |
| 2026-05-07 16:11 | 37.65705 | -105.36032 | 34324 ft | 441 kts | 258° |
| 2026-05-07 16:11 | 37.64150 | -105.43479 | 34335 ft | 442 kts | 258° |
| 2026-05-07 16:12 | 37.62577 | -105.50982 | 34345 ft | 442 kts | 258° |
| 2026-05-07 16:12 | 37.61256 | -105.57271 | 34330 ft | 444 kts | 258° |
| 2026-05-07 16:13 | 37.59669 | -105.64796 | 34316 ft | 444 kts | 258° |
| 2026-05-07 16:13 | 37.58079 | -105.72315 | 34318 ft | 444 kts | 258° |
| 2026-05-07 16:14 | 37.56484 | -105.79829 | 34312 ft | 444 kts | 258° |
| 2026-05-07 16:14 | 37.54897 | -105.87286 | 34296 ft | 444 kts | 258° |
| 2026-05-07 16:15 | 37.53293 | -105.94799 | 34305 ft | 444 kts | 258° |
| 2026-05-07 16:15 | 37.51686 | -106.02293 | 34314 ft | 443 kts | 258° |
| 2026-05-07 16:16 | 37.50069 | -106.09804 | 34316 ft | 444 kts | 258° |
| 2026-05-07 16:16 | 37.48446 | -106.17320 | 34315 ft | 445 kts | 257° |
| 2026-05-07 16:17 | 37.46818 | -106.24835 | 34323 ft | 445 kts | 257° |
| 2026-05-07 16:17 | 37.45184 | -106.32350 | 34327 ft | 445 kts | 257° |
| 2026-05-07 16:18 | 37.43544 | -106.39875 | 34330 ft | 446 kts | 257° |
| 2026-05-07 16:18 | 37.41898 | -106.47402 | 34346 ft | 446 kts | 257° |
| 2026-05-07 16:19 | 37.40248 | -106.54916 | 34366 ft | 445 kts | 257° |
| 2026-05-07 16:19 | 37.38604 | -106.62380 | 34379 ft | 446 kts | 257° |
| 2026-05-07 16:20 | 37.36944 | -106.69889 | 34386 ft | 446 kts | 257° |
| 2026-05-07 16:20 | 37.35278 | -106.77408 | 34390 ft | 447 kts | 257° |
| 2026-05-07 16:21 | 37.33604 | -106.84933 | 34395 ft | 447 kts | 257° |
| 2026-05-07 16:21 | 37.31924 | -106.92463 | 34376 ft | 449 kts | 257° |
| 2026-05-07 16:22 | 37.30233 | -107.00019 | 34338 ft | 449 kts | 257° |
| 2026-05-07 16:22 | 37.28535 | -107.07566 | 34327 ft | 449 kts | 257° |
| 2026-05-07 16:23 | 37.27081 | -107.14018 | 34311 ft | 450 kts | 257° |
| 2026-05-07 16:23 | 37.25393 | -107.21488 | 34299 ft | 438 kts | 257° |
| 2026-05-07 16:24 | 37.23735 | -107.28790 | 34313 ft | 434 kts | 257° |
| 2026-05-07 16:24 | 37.22082 | -107.36060 | 34299 ft | 433 kts | 257° |
| 2026-05-07 16:25 | 37.20438 | -107.43266 | 34304 ft | 433 kts | 257° |
| 2026-05-07 16:25 | 37.18776 | -107.50534 | 34302 ft | 434 kts | 257° |
| 2026-05-07 16:26 | 37.17106 | -107.57821 | 34287 ft | 435 kts | 257° |
| 2026-05-07 16:26 | 37.15424 | -107.65124 | 34284 ft | 436 kts | 257° |
| 2026-05-07 16:27 | 37.13737 | -107.72429 | 34274 ft | 437 kts | 257° |
| 2026-05-07 16:27 | 37.12043 | -107.79738 | 34278 ft | 437 kts | 257° |
| 2026-05-07 16:28 | 37.10340 | -107.87063 | 34276 ft | 438 kts | 257° |
| 2026-05-07 16:28 | 37.08631 | -107.94391 | 34281 ft | 438 kts | 257° |
| 2026-05-07 16:29 | 37.06917 | -108.01717 | 34273 ft | 439 kts | 257° |
| 2026-05-07 16:29 | 37.05197 | -108.09049 | 34265 ft | 440 kts | 257° |
| 2026-05-07 16:30 | 37.03467 | -108.16404 | 34272 ft | 441 kts | 257° |
| 2026-05-07 16:30 | 37.01729 | -108.23765 | 34271 ft | 442 kts | 257° |
| 2026-05-07 16:31 | 36.99993 | -108.31096 | 34271 ft | 443 kts | 256° |
| 2026-05-07 16:31 | 36.98237 | -108.38490 | 34270 ft | 444 kts | 256° |
| 2026-05-07 16:32 | 36.96470 | -108.45910 | 34268 ft | 446 kts | 256° |
| 2026-05-07 16:32 | 36.94692 | -108.53351 | 34269 ft | 446 kts | 256° |
| 2026-05-07 16:33 | 36.92909 | -108.60793 | 34263 ft | 447 kts | 256° |
| 2026-05-07 16:33 | 36.91121 | -108.68222 | 34266 ft | 446 kts | 256° |
| 2026-05-07 16:34 | 36.89330 | -108.75647 | 34265 ft | 446 kts | 256° |
| 2026-05-07 16:34 | 36.87533 | -108.83077 | 34273 ft | 446 kts | 256° |
| 2026-05-07 16:35 | 36.85732 | -108.90500 | 34264 ft | 447 kts | 256° |
| 2026-05-07 16:35 | 36.83937 | -108.97880 | 34268 ft | 447 kts | 256° |
| 2026-05-07 16:36 | 36.82125 | -109.05299 | 34265 ft | 447 kts | 256° |
| 2026-05-07 16:36 | 36.80302 | -109.12754 | 34275 ft | 453 kts | 256° |
| 2026-05-07 16:37 | 36.78443 | -109.20326 | 34258 ft | 457 kts | 256° |
| 2026-05-07 16:37 | 36.76581 | -109.27876 | 34249 ft | 454 kts | 256° |
| 2026-05-07 16:38 | 36.74724 | -109.35386 | 34256 ft | 453 kts | 256° |
| 2026-05-07 16:38 | 36.72868 | -109.42874 | 34263 ft | 452 kts | 255° |
| 2026-05-07 16:39 | 36.71007 | -109.50358 | 34274 ft | 452 kts | 255° |
| 2026-05-07 16:39 | 36.69140 | -109.57853 | 34256 ft | 453 kts | 255° |
| 2026-05-07 16:40 | 36.67261 | -109.65365 | 34258 ft | 455 kts | 255° |
| 2026-05-07 16:40 | 36.65367 | -109.72919 | 34252 ft | 458 kts | 255° |
| 2026-05-07 16:41 | 36.63459 | -109.80503 | 34252 ft | 460 kts | 255° |
| 2026-05-07 16:41 | 36.61550 | -109.88069 | 34250 ft | 462 kts | 255° |
| 2026-05-07 16:42 | 36.59616 | -109.95707 | 34247 ft | 463 kts | 255° |
| 2026-05-07 16:42 | 36.57671 | -110.03363 | 34248 ft | 465 kts | 255° |
| 2026-05-07 16:43 | 36.55719 | -110.11032 | 34240 ft | 466 kts | 255° |
| 2026-05-07 16:43 | 36.53757 | -110.18715 | 34237 ft | 466 kts | 255° |
| 2026-05-07 16:44 | 36.51787 | -110.26402 | 34237 ft | 467 kts | 255° |
| 2026-05-07 16:44 | 36.49813 | -110.34085 | 34236 ft | 466 kts | 255° |
| 2026-05-07 16:45 | 36.47836 | -110.41758 | 34242 ft | 466 kts | 254° |
| 2026-05-07 16:45 | 36.45854 | -110.49423 | 34235 ft | 465 kts | 255° |
| 2026-05-07 16:46 | 36.43872 | -110.57067 | 34237 ft | 464 kts | 255° |
| 2026-05-07 16:46 | 36.41889 | -110.64690 | 34235 ft | 464 kts | 255° |
| 2026-05-07 16:47 | 36.39902 | -110.72307 | 34227 ft | 463 kts | 255° |
| 2026-05-07 16:47 | 36.37915 | -110.79909 | 34239 ft | 463 kts | 255° |
| 2026-05-07 16:48 | 36.35940 | -110.87439 | 34240 ft | 463 kts | 255° |
| 2026-05-07 16:48 | 36.33940 | -110.95040 | 34239 ft | 464 kts | 255° |
| 2026-05-07 16:49 | 36.31944 | -111.02601 | 34243 ft | 465 kts | 255° |
| 2026-05-07 16:49 | 36.29925 | -111.10234 | 34241 ft | 467 kts | 255° |
| 2026-05-07 16:50 | 36.27894 | -111.17886 | 34246 ft | 467 kts | 255° |
| 2026-05-07 16:50 | 36.25856 | -111.25544 | 34247 ft | 469 kts | 255° |
| 2026-05-07 16:51 | 36.23810 | -111.33217 | 34248 ft | 469 kts | 255° |
| 2026-05-07 16:51 | 36.21789 | -111.40908 | 34247 ft | 470 kts | 255° |
| 2026-05-07 16:52 | 36.19793 | -111.48619 | 34257 ft | 470 kts | 255° |
| 2026-05-07 16:52 | 36.17793 | -111.56330 | 34266 ft | 471 kts | 255° |
| 2026-05-07 16:53 | 36.15781 | -111.64040 | 34264 ft | 471 kts | 255° |
| 2026-05-07 16:53 | 36.13760 | -111.71762 | 34269 ft | 472 kts | 255° |
| 2026-05-07 16:54 | 36.11731 | -111.79481 | 34280 ft | 472 kts | 255° |
| 2026-05-07 16:54 | 36.09692 | -111.87211 | 34268 ft | 473 kts | 255° |
| 2026-05-07 16:55 | 36.07650 | -111.94935 | 34276 ft | 473 kts | 254° |
| 2026-05-07 16:55 | 36.05618 | -112.02603 | 34291 ft | 473 kts | 254° |
| 2026-05-07 16:56 | 36.03564 | -112.10331 | 34284 ft | 474 kts | 254° |
| 2026-05-07 16:56 | 36.00468 | -112.21929 | 34286 ft | 474 kts | 254° |
| 2026-05-07 16:57 | 35.98401 | -112.29646 | 34283 ft | 473 kts | 254° |
| 2026-05-07 16:57 | 35.96328 | -112.37358 | 34290 ft | 473 kts | 254° |
| 2026-05-07 16:58 | 35.94253 | -112.45059 | 34288 ft | 473 kts | 254° |
| 2026-05-07 16:58 | 35.92185 | -112.52714 | 34278 ft | 473 kts | 254° |
| 2026-05-07 16:59 | 35.90086 | -112.60466 | 34275 ft | 473 kts | 254° |
| 2026-05-07 16:59 | 35.87993 | -112.68162 | 34271 ft | 474 kts | 254° |
| 2026-05-07 17:00 | 35.86246 | -112.74568 | 34267 ft | 474 kts | 254° |
| 2026-05-07 17:00 | 35.84145 | -112.82258 | 34260 ft | 474 kts | 254° |
| 2026-05-07 17:01 | 35.82037 | -112.89957 | 34260 ft | 475 kts | 254° |
| 2026-05-07 17:01 | 35.79919 | -112.97671 | 34252 ft | 476 kts | 253° |
| 2026-05-07 17:02 | 35.77791 | -113.05395 | 34240 ft | 477 kts | 253° |
| 2026-05-07 17:02 | 35.75651 | -113.13139 | 34237 ft | 478 kts | 253° |
| 2026-05-07 17:03 | 35.73499 | -113.20902 | 34222 ft | 480 kts | 253° |
| 2026-05-07 17:03 | 35.71343 | -113.28663 | 34229 ft | 480 kts | 253° |
| 2026-05-07 17:04 | 35.69174 | -113.36442 | 34199 ft | 481 kts | 253° |
| 2026-05-07 17:04 | 35.67012 | -113.44175 | 34199 ft | 481 kts | 253° |
| 2026-05-07 17:05 | 35.64829 | -113.51962 | 34182 ft | 482 kts | 253° |
| 2026-05-07 17:05 | 35.62640 | -113.59750 | 34163 ft | 482 kts | 253° |
| 2026-05-07 17:06 | 35.60446 | -113.67533 | 34151 ft | 482 kts | 253° |
| 2026-05-07 17:06 | 35.58249 | -113.75305 | 34143 ft | 481 kts | 253° |
| 2026-05-07 17:07 | 35.56050 | -113.83059 | 34144 ft | 479 kts | 253° |
| 2026-05-07 17:07 | 35.53853 | -113.90785 | 34149 ft | 479 kts | 253° |
| 2026-05-07 17:08 | 35.52008 | -113.97260 | 34147 ft | 478 kts | 253° |
| 2026-05-07 17:08 | 35.49807 | -114.04965 | 34125 ft | 479 kts | 253° |
| 2026-05-07 17:09 | 35.47615 | -114.12616 | 34115 ft | 479 kts | 253° |
| 2026-05-07 17:09 | 35.45401 | -114.20319 | 34102 ft | 479 kts | 253° |
| 2026-05-07 17:10 | 35.43181 | -114.28027 | 34086 ft | 480 kts | 253° |
| 2026-05-07 17:10 | 35.40952 | -114.35745 | 34075 ft | 480 kts | 253° |
| 2026-05-07 17:11 | 35.38716 | -114.43460 | 34055 ft | 481 kts | 253° |
| 2026-05-07 17:11 | 35.36471 | -114.51190 | 34029 ft | 481 kts | 253° |
| 2026-05-07 17:12 | 35.34224 | -114.58905 | 34024 ft | 481 kts | 253° |
| 2026-05-07 17:12 | 35.31969 | -114.66624 | 34000 ft | 482 kts | 253° |
| 2026-05-07 17:13 | 35.29706 | -114.74349 | 33991 ft | 482 kts | 253° |
| 2026-05-07 17:13 | 35.27445 | -114.82058 | 33992 ft | 481 kts | 253° |
| 2026-05-07 17:14 | 35.25191 | -114.89744 | 34000 ft | 479 kts | 253° |
| 2026-05-07 17:14 | 35.23183 | -114.97500 | 34013 ft | 477 kts | 256° |
| 2026-05-07 17:15 | 35.21264 | -115.05275 | 34025 ft | 477 kts | 256° |
| 2026-05-07 17:15 | 35.19319 | -115.12978 | 34037 ft | 478 kts | 255° |
| 2026-05-07 17:16 | 35.18322 | -115.16873 | 33862 ft | 484 kts | 255° |
| 2026-05-07 17:16 | 35.17298 | -115.20859 | 33533 ft | 484 kts | 255° |
| 2026-05-07 17:16 | 35.16304 | -115.24714 | 33153 ft | 480 kts | 255° |
| 2026-05-07 17:16 | 35.15291 | -115.28647 | 32780 ft | 478 kts | 255° |
| 2026-05-07 17:17 | 35.14307 | -115.32464 | 32411 ft | 477 kts | 255° |
| 2026-05-07 17:17 | 35.13312 | -115.36320 | 32042 ft | 476 kts | 255° |
| 2026-05-07 17:17 | 35.12320 | -115.40169 | 31671 ft | 474 kts | 255° |
| 2026-05-07 17:17 | 35.11331 | -115.44005 | 31294 ft | 472 kts | 255° |
| 2026-05-07 17:18 | 35.10345 | -115.47826 | 30916 ft | 470 kts | 255° |
| 2026-05-07 17:18 | 35.09365 | -115.51619 | 30550 ft | 467 kts | 255° |
| 2026-05-07 17:18 | 35.08388 | -115.55397 | 30169 ft | 465 kts | 255° |
| 2026-05-07 17:18 | 35.07417 | -115.59148 | 29791 ft | 462 kts | 255° |
| 2026-05-07 17:19 | 35.06453 | -115.62868 | 29420 ft | 458 kts | 255° |
| 2026-05-07 17:19 | 35.05492 | -115.66567 | 28989 ft | 456 kts | 255° |
| 2026-05-07 17:19 | 35.04537 | -115.70243 | 28539 ft | 454 kts | 255° |
| 2026-05-07 17:19 | 35.03584 | -115.73900 | 28090 ft | 451 kts | 255° |
| 2026-05-07 17:20 | 35.02635 | -115.77536 | 27647 ft | 448 kts | 255° |
| 2026-05-07 17:20 | 35.01694 | -115.81149 | 27188 ft | 446 kts | 255° |
| 2026-05-07 17:20 | 35.00757 | -115.84742 | 26742 ft | 443 kts | 255° |
| 2026-05-07 17:20 | 34.99829 | -115.88305 | 26292 ft | 439 kts | 255° |
| 2026-05-07 17:21 | 34.98905 | -115.91847 | 25842 ft | 436 kts | 255° |
| 2026-05-07 17:21 | 34.97988 | -115.95358 | 25399 ft | 433 kts | 255° |
| 2026-05-07 17:21 | 34.97074 | -115.98851 | 24945 ft | 430 kts | 255° |
| 2026-05-07 17:21 | 34.96167 | -116.02316 | 24499 ft | 428 kts | 255° |
| 2026-05-07 17:22 | 34.95265 | -116.05758 | 24061 ft | 425 kts | 255° |
| 2026-05-07 17:22 | 34.94367 | -116.09178 | 23596 ft | 423 kts | 255° |
| 2026-05-07 17:22 | 34.93426 | -116.12567 | 23136 ft | 422 kts | 250° |
| 2026-05-07 17:22 | 34.92123 | -116.15771 | 22703 ft | 422 kts | 243° |
| 2026-05-07 17:23 | 34.90661 | -116.18854 | 22259 ft | 419 kts | 242° |
| 2026-05-07 17:23 | 34.89219 | -116.21931 | 21795 ft | 417 kts | 243° |
| 2026-05-07 17:23 | 34.87825 | -116.25012 | 21355 ft | 414 kts | 244° |
| 2026-05-07 17:23 | 34.86471 | -116.28092 | 20899 ft | 411 kts | 244° |
| 2026-05-07 17:24 | 34.85139 | -116.31155 | 20465 ft | 408 kts | 244° |
| 2026-05-07 17:24 | 34.83813 | -116.34203 | 19997 ft | 406 kts | 244° |
| 2026-05-07 17:24 | 34.82493 | -116.37230 | 19570 ft | 403 kts | 244° |
| 2026-05-07 17:24 | 34.81177 | -116.40230 | 19147 ft | 400 kts | 244° |
| 2026-05-07 17:25 | 34.79882 | -116.43164 | 18805 ft | 397 kts | 242° |
| 2026-05-07 17:25 | 34.78377 | -116.45972 | 18440 ft | 394 kts | 236° |
| 2026-05-07 17:25 | 34.76772 | -116.48658 | 18092 ft | 390 kts | 235° |
| 2026-05-07 17:25 | 34.75168 | -116.51303 | 17744 ft | 387 kts | 234° |
| 2026-05-07 17:26 | 34.73583 | -116.53929 | 17405 ft | 384 kts | 235° |
| 2026-05-07 17:26 | 34.72016 | -116.56549 | 17042 ft | 382 kts | 235° |
| 2026-05-07 17:26 | 34.70462 | -116.59162 | 16690 ft | 380 kts | 235° |
| 2026-05-07 17:26 | 34.68919 | -116.61760 | 16349 ft | 378 kts | 235° |
| 2026-05-07 17:27 | 34.67385 | -116.64339 | 16004 ft | 375 kts | 235° |
| 2026-05-07 17:27 | 34.65857 | -116.66905 | 15638 ft | 374 kts | 235° |
| 2026-05-07 17:27 | 34.64339 | -116.69452 | 15292 ft | 371 kts | 235° |
| 2026-05-07 17:27 | 34.62829 | -116.71987 | 14944 ft | 369 kts | 235° |
| 2026-05-07 17:28 | 34.61329 | -116.74499 | 14605 ft | 366 kts | 235° |
| 2026-05-07 17:28 | 34.59879 | -116.77032 | 14238 ft | 364 kts | 240° |
| 2026-05-07 17:28 | 34.58652 | -116.79709 | 13897 ft | 362 kts | 243° |
| 2026-05-07 17:28 | 34.57469 | -116.82390 | 13617 ft | 358 kts | 243° |
| 2026-05-07 17:29 | 34.56294 | -116.85027 | 13368 ft | 352 kts | 243° |
| 2026-05-07 17:29 | 34.55132 | -116.87609 | 13101 ft | 346 kts | 242° |
| 2026-05-07 17:29 | 34.53864 | -116.90078 | 12842 ft | 345 kts | 232° |
| 2026-05-07 17:29 | 34.52317 | -116.92284 | 12626 ft | 342 kts | 229° |
| 2026-05-07 17:30 | 34.50736 | -116.94442 | 12417 ft | 344 kts | 229° |
| 2026-05-07 17:30 | 34.49155 | -116.96622 | 12177 ft | 343 kts | 229° |
| 2026-05-07 17:30 | 34.47625 | -116.98757 | 11942 ft | 336 kts | 229° |
| 2026-05-07 17:30 | 34.46111 | -117.00872 | 11723 ft | 329 kts | 229° |
| 2026-05-07 17:31 | 34.44436 | -117.02712 | 11486 ft | 322 kts | 214° |
| 2026-05-07 17:31 | 34.42515 | -117.04053 | 11260 ft | 316 kts | 207° |
| 2026-05-07 17:31 | 34.40566 | -117.05246 | 11012 ft | 312 kts | 206° |
| 2026-05-07 17:31 | 34.38640 | -117.06414 | 10760 ft | 308 kts | 206° |
| 2026-05-07 17:32 | 34.36747 | -117.07581 | 10520 ft | 304 kts | 207° |
| 2026-05-07 17:32 | 34.34870 | -117.08749 | 10261 ft | 302 kts | 207° |
| 2026-05-07 17:32 | 34.33019 | -117.09907 | 10165 ft | 299 kts | 207° |
| 2026-05-07 17:32 | 34.31776 | -117.10721 | 10135 ft | 301 kts | 210° |
| 2026-05-07 17:33 | 34.29433 | -117.12441 | 10106 ft | 293 kts | 211° |
| 2026-05-07 17:33 | 34.27688 | -117.13743 | 9773 ft | 301 kts | 211° |
| 2026-05-07 17:33 | 34.25886 | -117.15078 | 9339 ft | 306 kts | 211° |
| 2026-05-07 17:33 | 34.24069 | -117.16409 | 8986 ft | 304 kts | 211° |
| 2026-05-07 17:34 | 34.22240 | -117.17713 | 8582 ft | 306 kts | 211° |
| 2026-05-07 17:34 | 34.20432 | -117.19046 | 8143 ft | 301 kts | 214° |
| 2026-05-07 17:34 | 34.18830 | -117.20612 | 7742 ft | 294 kts | 223° |
| 2026-05-07 17:34 | 34.17347 | -117.22292 | 7312 ft | 293 kts | 224° |
| 2026-05-07 17:35 | 34.15889 | -117.23986 | 6859 ft | 288 kts | 225° |
| 2026-05-07 17:35 | 34.14500 | -117.25699 | 6436 ft | 283 kts | 226° |
| 2026-05-07 17:35 | 34.13135 | -117.27386 | 6000 ft | 279 kts | 226° |
| 2026-05-07 17:35 | 34.11784 | -117.29038 | 5579 ft | 274 kts | 226° |
| 2026-05-07 17:36 | 34.10451 | -117.30660 | 5160 ft | 271 kts | 225° |
| 2026-05-07 17:36 | 34.09127 | -117.32262 | 4706 ft | 269 kts | 225° |
| 2026-05-07 17:36 | 34.07813 | -117.33845 | 4398 ft | 261 kts | 225° |
| 2026-05-07 17:36 | 34.06571 | -117.35346 | 4311 ft | 244 kts | 228° |
| 2026-05-07 17:37 | 34.05851 | -117.37069 | 4296 ft | 222 kts | 263° |
| 2026-05-07 17:37 | 34.05753 | -117.38368 | 4106 ft | 220 kts | 268° |
| 2026-05-07 17:37 | 34.05714 | -117.40163 | 3850 ft | 209 kts | 270° |
| 2026-05-07 17:37 | 34.05711 | -117.41869 | 3582 ft | 198 kts | 270° |
| 2026-05-07 17:38 | 34.05708 | -117.43488 | 3321 ft | 188 kts | 270° |
| 2026-05-07 17:38 | 34.05707 | -117.45014 | 3092 ft | 176 kts | 270° |
| 2026-05-07 17:38 | 34.05704 | -117.46451 | 2848 ft | 166 kts | 270° |
| 2026-05-07 17:38 | 34.05703 | -117.47765 | 2678 ft | 153 kts | 270° |
| 2026-05-07 17:39 | 34.05701 | -117.49049 | 2455 ft | 151 kts | 269° |
| 2026-05-07 17:39 | 34.05698 | -117.50287 | 2253 ft | 148 kts | 270° |
| 2026-05-07 17:39 | 34.05696 | -117.51515 | 2054 ft | 146 kts | 270° |
| 2026-05-07 17:39 | 34.05696 | -117.52741 | 1874 ft | 146 kts | 270° |
| 2026-05-07 17:40 | 34.05645 | -117.53935 | 1773 ft | 141 kts | 265° |
| 2026-05-07 17:40 | 34.05638 | -117.55147 | 1619 ft | 150 kts | 275° |
| 2026-05-07 17:40 | 34.05684 | -117.56390 | 1345 ft | 149 kts | 270° |
| 2026-05-07 17:40 | 34.05692 | -117.57651 | 1124 ft | 151 kts | 266° |
| 2026-05-07 17:41 | 34.05689 | -117.58889 | 958 ft | 142 kts | 268° |
| 2026-05-07 17:41 | 34.05678 | -117.59933 | 941 ft | 99 kts | 275° |
| 2026-05-07 17:41 | 34.05693 | -117.60513 | 944 ft | 39 kts | 271° |
| 2026-05-07 17:41 | 34.05694 | -117.60693 | 942 ft | 17 kts | 270° |
| 2026-05-07 17:42 | 34.05728 | -117.60757 | 942 ft | 6 kts | 314° |
| 2026-05-07 17:42 | 34.05755 | -117.60791 | 942 ft | 6 kts | 314° |
| 2026-05-07 17:42 | 34.05783 | -117.60824 | 941 ft | 6 kts | 324° |
| 2026-05-07 17:42 | 34.05824 | -117.60830 | 941 ft | 6 kts | 26° |
| 2026-05-07 17:43 | 34.05858 | -117.60795 | 942 ft | 6 kts | 44° |
| 2026-05-07 17:43 | 34.05878 | -117.60770 | 941 ft | 6 kts | 47° |
| 2026-05-07 17:43 | 34.05916 | -117.60759 | 944 ft | 6 kts | 332° |
| 2026-05-07 17:43 | 34.05942 | -117.60788 | 943 ft | 1 kts | 317° |
| 2026-05-07 17:44 | 34.05945 | -117.60791 | 943 ft | 0 kts | 316° |
| 2026-05-07 17:44 | 34.05948 | -117.60796 | 943 ft | 1 kts | 310° |
| 2026-05-07 17:44 | 34.05951 | -117.60801 | 943 ft | 0 kts | 309° |